createdAt,value
2024-01-05T00:04:05.288Z,2.40
2024-01-05T00:14:07.317Z,2.30
2024-01-05T00:24:09.301Z,2.20
2024-01-05T00:34:11.371Z,2.10
2024-01-05T00:44:13.318Z,2.30
2024-01-05T00:54:15.348Z,1.90
2024-01-05T01:04:17.626Z,1.80
2024-01-05T01:14:21.078Z,1.90
2024-01-05T01:24:23.393Z,2.00
2024-01-05T01:34:25.420Z,1.70
2024-01-05T01:44:27.501Z,1.70
2024-01-05T01:54:31.899Z,1.70
2024-01-05T02:04:36.760Z,1.70
2024-01-05T02:14:39.936Z,1.60
2024-01-05T02:24:41.792Z,1.60
2024-01-05T02:34:43.830Z,1.60
2024-01-05T02:44:47.178Z,1.70
2024-01-05T02:54:49.042Z,1.60
2024-01-05T03:04:53.985Z,1.40
2024-01-05T03:14:56.007Z,1.40
2024-01-05T03:24:58.031Z,1.30
2024-01-05T03:35:00.028Z,1.20
2024-01-05T03:45:02.279Z,1.00
2024-01-05T03:55:05.075Z,0.60
2024-01-05T04:05:07.381Z,0.50
2024-01-05T04:15:09.452Z,0.50
2024-01-05T04:25:11.415Z,0.50
2024-01-05T04:35:13.354Z,0.50
2024-01-05T04:45:15.327Z,0.60
2024-01-05T04:55:17.281Z,0.70
2024-01-05T05:05:19.201Z,0.80
2024-01-05T05:15:21.144Z,0.70
2024-01-05T05:25:23.398Z,0.90
2024-01-05T05:35:25.497Z,1.10
2024-01-05T05:45:27.356Z,1.10
2024-01-05T05:55:29.452Z,0.90
2024-01-05T06:05:31.619Z,1.00
2024-01-05T06:15:33.501Z,0.90
2024-01-05T06:25:35.524Z,1.00
2024-01-05T06:35:37.635Z,1.30
2024-01-05T06:45:39.665Z,1.40
2024-01-05T06:55:41.595Z,1.30
2024-01-05T07:05:43.560Z,1.40
2024-01-05T07:15:45.457Z,1.30
2024-01-05T07:25:47.407Z,1.20
2024-01-05T07:35:49.356Z,1.30
2024-01-05T07:45:51.307Z,1.30
2024-01-05T07:55:53.261Z,1.30
2024-01-05T08:05:55.380Z,1.40
2024-01-05T08:15:57.332Z,1.40
2024-01-05T08:25:59.895Z,1.60
2024-01-05T08:36:01.849Z,1.70
2024-01-05T08:46:03.813Z,2.00
2024-01-05T08:56:06.003Z,2.40
2024-01-05T09:06:08.167Z,3.10
2024-01-05T09:16:10.288Z,3.60
2024-01-05T09:26:15.997Z,3.40
2024-01-05T09:36:21.497Z,3.60
2024-01-05T09:46:23.762Z,3.90
2024-01-05T09:56:27.661Z,3.80
2024-01-05T10:06:30.341Z,4.40
2024-01-05T10:16:32.735Z,4.50
2024-01-05T10:26:34.836Z,4.50
2024-01-05T10:36:37.293Z,4.40
2024-01-05T10:46:40.718Z,4.90
2024-01-05T10:56:44.909Z,4.90
2024-01-05T11:06:47.284Z,5.30
2024-01-05T11:17:22.603Z,5.20
2024-01-05T11:27:32.349Z,5.50
2024-01-05T11:37:34.210Z,5.60
2024-01-05T11:47:46.690Z,5.50
2024-01-05T11:57:51.711Z,5.60
2024-01-05T12:08:11.192Z,5.70
2024-01-05T12:18:28.169Z,5.60
2024-01-05T12:28:41.142Z,5.60
2024-01-05T12:38:43.288Z,5.50
2024-01-05T12:48:45.453Z,5.50
2024-01-05T12:58:50.539Z,5.60
2024-01-05T13:08:52.565Z,5.70
2024-01-05T13:18:55.010Z,5.70
2024-01-05T13:28:57.090Z,5.80
2024-01-05T13:38:59.014Z,5.80
2024-01-05T13:49:01.264Z,5.60
2024-01-05T13:59:03.364Z,5.50
2024-01-05T14:09:05.585Z,5.20
2024-01-05T14:19:07.677Z,5.10
2024-01-05T14:29:10.213Z,5.20
2024-01-05T14:39:12.306Z,4.80
2024-01-05T14:49:14.756Z,4.60
2024-01-05T14:59:17.116Z,4.70
2024-01-05T15:09:19.223Z,4.30
2024-01-05T15:19:21.072Z,4.10
2024-01-05T15:29:23.018Z,3.80
2024-01-05T15:39:24.955Z,3.80
2024-01-05T15:49:26.998Z,3.60
2024-01-05T15:59:29.252Z,3.60
2024-01-05T16:09:31.139Z,3.40
2024-01-05T16:19:33.130Z,3.30
2024-01-05T16:29:35.198Z,3.20
2024-01-05T16:39:37.060Z,3.10
2024-01-05T16:49:39.269Z,3.00
2024-01-05T16:59:41.358Z,3.00
2024-01-05T17:09:43.300Z,2.90
2024-01-05T17:19:45.641Z,3.00
2024-01-05T17:29:48.722Z,2.80
2024-01-05T17:39:50.698Z,2.80
2024-01-05T17:49:52.715Z,2.90
2024-01-05T17:59:54.674Z,2.80
2024-01-05T18:09:56.821Z,2.70
2024-01-05T18:19:58.920Z,2.60
2024-01-05T18:30:00.820Z,2.40
2024-01-05T18:40:02.767Z,2.40
2024-01-05T18:50:05.188Z,2.30
2024-01-05T19:00:07.779Z,2.30
2024-01-05T19:10:10.165Z,2.20
2024-01-05T19:20:12.271Z,2.20
2024-01-05T19:30:14.784Z,2.10
2024-01-05T19:40:16.985Z,1.90
2024-01-05T19:50:20.203Z,1.90
2024-01-05T20:00:23.605Z,1.60
2024-01-05T20:10:25.805Z,1.40
2024-01-05T20:20:36.612Z,1.30
2024-01-05T20:30:40.679Z,1.20
2024-01-05T20:40:47.376Z,1.20
2024-01-05T20:50:56.882Z,1.20
2024-01-05T21:00:59.040Z,1.30
2024-01-05T21:11:02.352Z,1.30
2024-01-05T21:21:35.088Z,1.10
2024-01-05T21:41:53.244Z,0.90
2024-01-05T21:51:56.946Z,0.90
2024-01-05T22:02:02.805Z,0.80
2024-01-05T22:12:06.756Z,0.80
2024-01-05T22:22:08.896Z,0.90
2024-01-05T22:32:16.816Z,0.80
2024-01-05T22:42:19.177Z,0.80
2024-01-05T22:52:28.840Z,0.90
2024-01-05T23:02:32.730Z,0.70
2024-01-05T23:12:46.619Z,0.60
2024-01-05T23:23:10.584Z,0.60
2024-01-05T23:33:16.889Z,0.70
2024-01-05T23:43:19.369Z,0.70
2024-01-05T23:53:40.546Z,0.80
